createdAt,value
2022-11-14T00:00:47.840Z,93.20
2022-11-14T00:03:33.610Z,93.40
2022-11-14T00:06:19.876Z,93.90
2022-11-14T00:09:05.230Z,94.30
2022-11-14T00:11:50.668Z,94.70
2022-11-14T00:14:36.948Z,95.10
2022-11-14T00:17:23.397Z,95.50
2022-11-14T00:20:11.261Z,95.70
2022-11-14T00:22:57.383Z,95.90
2022-11-14T00:25:44.454Z,96.00
2022-11-14T00:28:30.284Z,95.90
2022-11-14T00:31:16.293Z,95.70
2022-11-14T00:34:02.160Z,95.40
2022-11-14T00:36:47.554Z,95.30
2022-11-14T00:39:33.134Z,95.10
2022-11-14T00:42:18.581Z,94.70
2022-11-14T00:45:04.456Z,94.20
2022-11-14T00:47:49.966Z,94.10
2022-11-14T00:50:35.736Z,94.00
2022-11-14T00:53:21.215Z,93.80
2022-11-14T00:56:07.209Z,93.70
2022-11-14T00:58:52.497Z,93.60
2022-11-14T01:01:37.974Z,93.70
2022-11-14T01:04:23.584Z,93.60
2022-11-14T01:07:09.772Z,93.60
2022-11-14T01:09:55.327Z,93.60
2022-11-14T01:12:40.798Z,93.70
2022-11-14T01:15:26.302Z,94.00
2022-11-14T01:18:14.359Z,94.20
2022-11-14T01:21:00.498Z,94.60
2022-11-14T01:23:46.407Z,95.00
2022-11-14T01:26:32.716Z,95.70
2022-11-14T01:29:18.187Z,96.40
2022-11-14T01:32:03.725Z,97.00
2022-11-14T01:34:49.275Z,97.50
2022-11-14T01:37:34.811Z,98.00
2022-11-14T01:40:20.752Z,98.40
2022-11-14T01:43:18.640Z,98.60
2022-11-14T01:46:35.620Z,98.90
2022-11-14T01:49:33.563Z,99.40
2022-11-14T01:52:24.490Z,99.60
2022-11-14T01:55:11.279Z,99.70
2022-11-14T01:57:59.454Z,99.70
2022-11-14T02:00:45.366Z,99.90
2022-11-14T02:03:33.502Z,99.90
2022-11-14T02:06:22.534Z,99.90
2022-11-14T02:09:08.471Z,99.90
2022-11-14T02:11:56.625Z,99.90
2022-11-14T02:14:47.720Z,99.90
2022-11-14T02:17:33.333Z,99.90
2022-11-14T02:20:29.676Z,99.90
2022-11-14T02:23:15.948Z,99.90
2022-11-14T02:26:01.480Z,99.90
2022-11-14T02:28:47.951Z,99.90
2022-11-14T02:31:35.161Z,99.90
2022-11-14T02:34:21.078Z,99.90
2022-11-14T02:37:07.321Z,99.90
2022-11-14T02:39:52.977Z,99.90
2022-11-14T02:42:38.285Z,99.90
2022-11-14T02:45:24.223Z,99.90
2022-11-14T02:48:09.719Z,99.90
2022-11-14T02:50:55.324Z,99.90
2022-11-14T02:53:41.047Z,99.90
2022-11-14T02:56:27.029Z,99.90
2022-11-14T02:59:12.973Z,99.90
2022-11-14T03:01:58.130Z,99.90
2022-11-14T03:04:43.766Z,99.90
2022-11-14T03:07:29.364Z,99.90
2022-11-14T03:10:14.997Z,99.90
2022-11-14T03:13:00.721Z,99.90
2022-11-14T03:15:47.092Z,99.90
2022-11-14T03:18:32.830Z,99.90
2022-11-14T03:21:22.946Z,99.90
2022-11-14T03:24:08.390Z,99.90
2022-11-14T03:26:53.760Z,99.90
2022-11-14T03:29:39.070Z,99.90
2022-11-14T03:32:24.660Z,99.90
2022-11-14T03:35:10.972Z,99.90
2022-11-14T03:37:56.941Z,99.90
2022-11-14T03:40:42.833Z,99.90
2022-11-14T03:43:32.654Z,99.90
2022-11-14T03:46:17.919Z,99.90
2022-11-14T03:49:03.394Z,99.90
2022-11-14T03:51:49.295Z,99.90
2022-11-14T03:54:34.407Z,99.90
2022-11-14T03:57:20.075Z,99.90
2022-11-14T04:00:05.968Z,99.90
2022-11-14T04:02:51.467Z,99.90
2022-11-14T04:05:37.317Z,99.90
2022-11-14T04:08:23.068Z,99.90
2022-11-14T04:11:08.879Z,99.90
2022-11-14T04:13:54.174Z,99.90
2022-11-14T04:16:39.830Z,99.90
2022-11-14T04:19:25.350Z,99.90
2022-11-14T04:22:11.336Z,99.90
2022-11-14T04:24:56.866Z,99.90
2022-11-14T04:27:42.020Z,99.90
2022-11-14T04:30:32.060Z,99.90
2022-11-14T04:33:19.866Z,99.90
2022-11-14T04:36:05.995Z,99.90
2022-11-14T04:38:51.350Z,99.90
2022-11-14T04:41:36.933Z,99.90
2022-11-14T04:44:22.632Z,99.90
2022-11-14T04:47:08.189Z,99.90
2022-11-14T04:49:53.712Z,99.90
2022-11-14T04:52:39.451Z,99.90
2022-11-14T04:55:25.015Z,99.90
2022-11-14T04:58:10.617Z,99.90
2022-11-14T05:00:57.945Z,99.90
2022-11-14T05:03:43.650Z,99.90
2022-11-14T05:06:29.151Z,99.90
2022-11-14T05:09:14.620Z,99.90
2022-11-14T05:12:00.206Z,99.90
2022-11-14T05:14:45.542Z,99.90
2022-11-14T05:17:31.554Z,99.90
2022-11-14T05:20:17.140Z,99.90
2022-11-14T05:23:02.809Z,99.90
2022-11-14T05:25:58.842Z,99.90
2022-11-14T05:28:44.594Z,99.90
2022-11-14T05:31:29.911Z,99.90
2022-11-14T05:34:15.158Z,99.90
2022-11-14T05:37:00.672Z,99.90
2022-11-14T05:39:46.062Z,99.90
2022-11-14T05:42:31.707Z,99.90
2022-11-14T05:45:17.103Z,99.90
2022-11-14T05:48:02.599Z,99.90
2022-11-14T05:50:48.046Z,99.90
2022-11-14T05:53:40.162Z,99.90
2022-11-14T05:56:25.819Z,99.90
2022-11-14T05:59:11.379Z,99.90
2022-11-14T06:01:56.978Z,99.90
2022-11-14T06:04:42.582Z,99.90
2022-11-14T06:07:29.005Z,99.90
2022-11-14T06:10:14.560Z,99.90
2022-11-14T06:12:59.900Z,99.90
2022-11-14T06:15:45.284Z,99.90
2022-11-14T06:18:32.185Z,99.90
2022-11-14T06:21:20.091Z,99.90
2022-11-14T06:24:05.856Z,99.90
2022-11-14T06:26:51.473Z,99.90
2022-11-14T06:29:36.921Z,99.90
2022-11-14T06:32:22.257Z,99.90
2022-11-14T06:35:08.506Z,99.90
2022-11-14T06:37:54.285Z,99.90
2022-11-14T06:40:39.566Z,99.90
2022-11-14T06:43:25.126Z,99.90
2022-11-14T06:46:13.410Z,99.90
2022-11-14T06:48:58.718Z,99.90
2022-11-14T06:51:44.229Z,99.90
2022-11-14T06:54:29.438Z,99.90
2022-11-14T06:57:15.008Z,99.90
2022-11-14T07:00:00.674Z,99.90
2022-11-14T07:02:47.311Z,99.90
2022-11-14T07:05:32.826Z,99.90
2022-11-14T07:08:30.752Z,99.90
2022-11-14T07:11:26.439Z,99.90
2022-11-14T07:14:12.403Z,99.90
2022-11-14T07:16:58.683Z,99.90
2022-11-14T07:19:44.139Z,99.90
2022-11-14T07:22:29.738Z,99.90
2022-11-14T07:25:15.407Z,99.90
2022-11-14T07:28:00.840Z,99.90
2022-11-14T07:30:46.512Z,99.90
2022-11-14T07:33:32.942Z,99.90
2022-11-14T07:36:18.506Z,99.90
2022-11-14T07:39:04.141Z,99.90
2022-11-14T07:41:49.342Z,99.90
2022-11-14T07:44:34.858Z,99.90
2022-11-14T07:47:20.367Z,99.90
2022-11-14T07:50:06.302Z,99.90
2022-11-14T07:52:55.885Z,99.90
2022-11-14T07:55:41.687Z,99.90
2022-11-14T07:58:27.346Z,99.90
2022-11-14T08:01:14.719Z,99.90
2022-11-14T08:04:00.471Z,99.90
2022-11-14T08:06:46.284Z,99.90
2022-11-14T08:09:31.902Z,99.90
2022-11-14T08:12:17.482Z,99.90
2022-11-14T08:15:02.915Z,99.90
2022-11-14T08:17:48.339Z,99.90
2022-11-14T08:20:33.984Z,99.90
2022-11-14T08:23:19.449Z,99.90
2022-11-14T08:26:05.191Z,99.90
2022-11-14T08:28:54.471Z,99.90
2022-11-14T08:31:39.683Z,99.90
2022-11-14T08:34:25.906Z,99.90
2022-11-14T08:37:11.152Z,99.90
2022-11-14T08:39:56.595Z,99.90
2022-11-14T08:42:42.287Z,99.90
2022-11-14T08:45:28.605Z,99.90
2022-11-14T08:48:14.245Z,99.90
2022-11-14T08:51:05.519Z,99.90
2022-11-14T08:53:52.593Z,99.90
2022-11-14T08:56:38.554Z,99.90
2022-11-14T08:59:23.820Z,99.90
2022-11-14T09:02:13.736Z,99.90
2022-11-14T09:04:59.454Z,99.90
2022-11-14T09:07:45.022Z,99.90
2022-11-14T09:10:30.587Z,99.90
2022-11-14T09:13:17.201Z,99.90
2022-11-14T09:16:03.027Z,99.90
2022-11-14T09:18:48.657Z,99.90
2022-11-14T09:21:33.891Z,99.90
2022-11-14T09:24:19.738Z,99.90
2022-11-14T09:27:05.563Z,99.80
2022-11-14T09:29:50.848Z,99.50
2022-11-14T09:32:36.328Z,99.20
2022-11-14T09:35:21.798Z,98.90
2022-11-14T09:38:10.784Z,98.80
2022-11-14T09:41:25.167Z,98.80
2022-11-14T09:44:45.000Z,98.40
2022-11-14T09:47:37.415Z,98.20
2022-11-14T09:50:37.106Z,98.10
2022-11-14T09:53:34.258Z,97.30
2022-11-14T09:56:25.681Z,96.80
2022-11-14T09:59:12.672Z,96.60
2022-11-14T10:02:19.391Z,96.30
2022-11-14T10:05:23.912Z,95.90
2022-11-14T10:08:34.234Z,95.50
2022-11-14T10:11:31.556Z,94.80
2022-11-14T10:14:41.103Z,93.90
2022-11-14T10:17:47.432Z,93.20
2022-11-14T10:20:53.707Z,92.60
2022-11-14T10:23:54.938Z,92.20
2022-11-14T10:26:53.002Z,91.50
2022-11-14T10:30:03.598Z,90.90
2022-11-14T10:33:10.636Z,90.50
2022-11-14T10:36:20.787Z,90.10
2022-11-14T10:39:23.411Z,89.60
2022-11-14T10:42:30.627Z,88.80
2022-11-14T10:45:26.901Z,87.20
2022-11-14T10:48:24.632Z,85.00
2022-11-14T10:51:22.219Z,83.10
2022-11-14T10:54:30.574Z,81.00
2022-11-14T10:57:21.823Z,78.50
2022-11-14T11:00:16.418Z,76.70
2022-11-14T11:03:01.932Z,69.10
2022-11-14T11:05:51.911Z,63.60
2022-11-14T11:09:02.375Z,59.10
2022-11-14T11:11:57.321Z,56.70
2022-11-14T11:14:43.477Z,54.70
2022-11-14T11:17:35.854Z,54.70
2022-11-14T11:20:29.443Z,55.10
2022-11-14T11:23:25.239Z,56.70
2022-11-14T11:26:22.926Z,58.70
2022-11-14T11:29:11.339Z,58.80
2022-11-14T11:31:58.551Z,59.60
2022-11-14T11:34:44.619Z,60.70
2022-11-14T11:37:35.988Z,60.50
2022-11-14T11:40:25.549Z,61.10
2022-11-14T11:46:49.417Z,61.10
2022-11-14T11:49:51.723Z,58.90
2022-11-14T11:53:01.302Z,59.40
2022-11-14T11:55:51.233Z,58.60
2022-11-14T11:58:56.565Z,55.60
2022-11-14T12:01:42.050Z,53.50
2022-11-14T12:04:27.207Z,50.50
2022-11-14T12:07:18.358Z,48.30
2022-11-14T12:10:13.260Z,45.40
2022-11-14T12:13:24.684Z,44.60
2022-11-14T12:16:39.835Z,44.00
2022-11-14T12:19:46.290Z,42.20
2022-11-14T12:23:05.867Z,42.30
2022-11-14T12:26:11.033Z,42.90
2022-11-14T12:29:22.577Z,43.40
2022-11-14T12:32:17.647Z,43.60
2022-11-14T12:35:14.096Z,44.20
2022-11-14T12:38:05.695Z,45.10
2022-11-14T12:40:57.758Z,45.30
2022-11-14T12:43:43.996Z,45.00
2022-11-14T12:47:05.418Z,44.30
2022-11-14T12:49:53.994Z,44.20
2022-11-14T12:52:51.103Z,43.70
2022-11-14T12:55:36.631Z,42.10
2022-11-14T12:58:48.142Z,43.10
2022-11-14T13:01:40.793Z,43.30
2022-11-14T13:04:40.997Z,43.30
2022-11-14T13:07:34.111Z,43.00
2022-11-14T13:10:30.134Z,43.30
2022-11-14T13:13:34.971Z,43.80
2022-11-14T13:16:43.073Z,44.50
2022-11-14T13:19:47.338Z,44.30
2022-11-14T13:22:37.185Z,44.50
2022-11-14T13:25:23.530Z,44.60
2022-11-14T13:28:27.788Z,44.70
2022-11-14T13:31:16.205Z,44.70
2022-11-14T13:34:20.744Z,43.30
2022-11-14T13:37:24.827Z,43.40
2022-11-14T13:40:16.676Z,44.00
2022-11-14T13:43:11.233Z,44.60
2022-11-14T13:46:19.827Z,44.70
2022-11-14T13:49:17.262Z,43.40
2022-11-14T13:52:04.241Z,43.50
2022-11-14T13:54:51.524Z,44.40
2022-11-14T13:58:09.150Z,45.10
2022-11-14T14:01:06.185Z,44.90
2022-11-14T14:03:57.601Z,45.00
2022-11-14T14:06:48.692Z,44.70
2022-11-14T14:09:50.334Z,44.70
2022-11-14T14:12:50.832Z,44.60
2022-11-14T14:15:55.376Z,44.30
2022-11-14T14:19:03.249Z,44.60
2022-11-14T14:22:04.451Z,45.60
2022-11-14T14:25:08.536Z,45.80
2022-11-14T14:28:09.513Z,47.50
2022-11-14T14:31:09.593Z,50.00
2022-11-14T14:33:54.955Z,50.90
2022-11-14T14:36:53.177Z,51.10
2022-11-14T14:39:38.268Z,53.00
2022-11-14T14:42:24.057Z,54.30
2022-11-14T14:45:18.124Z,55.80
2022-11-14T14:48:11.210Z,57.50
2022-11-14T14:51:00.465Z,58.50
2022-11-14T14:53:54.092Z,59.90
2022-11-14T14:56:39.921Z,61.10
2022-11-14T14:59:27.690Z,61.90
2022-11-14T15:02:23.445Z,63.40
2022-11-14T15:05:09.000Z,65.30
2022-11-14T15:07:59.210Z,65.30
2022-11-14T15:10:45.132Z,66.10
2022-11-14T15:13:30.907Z,66.90
2022-11-14T15:16:16.531Z,67.70
2022-11-14T15:19:02.696Z,68.80
2022-11-14T15:22:01.118Z,69.20
2022-11-14T15:25:04.990Z,69.00
2022-11-14T15:27:51.961Z,69.10
2022-11-14T15:30:37.186Z,69.40
2022-11-14T15:33:34.666Z,69.70
2022-11-14T15:36:19.734Z,70.40
2022-11-14T15:39:06.083Z,71.00
2022-11-14T15:42:11.255Z,71.40
2022-11-14T15:44:56.553Z,71.90
2022-11-14T15:47:42.108Z,72.50
2022-11-14T15:50:33.310Z,73.20
2022-11-14T15:53:23.781Z,74.30
2022-11-14T15:56:12.847Z,74.60
2022-11-14T15:58:59.163Z,75.00
2022-11-14T16:01:47.378Z,75.60
2022-11-14T16:04:37.090Z,76.40
2022-11-14T16:07:22.888Z,76.70
2022-11-14T16:10:20.238Z,77.20
2022-11-14T16:13:06.703Z,77.90
2022-11-14T16:15:52.101Z,78.20
2022-11-14T16:18:37.684Z,78.60
2022-11-14T16:21:23.240Z,79.20
2022-11-14T16:24:23.327Z,79.60
2022-11-14T16:27:09.585Z,80.20
2022-11-14T16:29:55.251Z,80.50
2022-11-14T16:32:41.771Z,81.00
2022-11-14T16:35:27.416Z,81.50
2022-11-14T16:38:13.387Z,81.90
2022-11-14T16:41:00.253Z,82.20
2022-11-14T16:43:45.598Z,82.70
2022-11-14T16:46:30.917Z,83.20
2022-11-14T16:49:17.004Z,83.90
2022-11-14T16:52:07.118Z,84.10
2022-11-14T16:54:52.287Z,84.70
2022-11-14T16:57:37.681Z,85.20
2022-11-14T17:00:23.301Z,85.80
2022-11-14T17:03:08.550Z,86.30
2022-11-14T17:05:54.193Z,87.00
2022-11-14T17:08:39.789Z,87.70
2022-11-14T17:11:26.180Z,88.40
2022-11-14T17:14:12.288Z,88.90
2022-11-14T17:17:04.304Z,89.60
2022-11-14T17:19:50.063Z,90.10
2022-11-14T17:22:35.639Z,90.40
2022-11-14T17:25:21.215Z,90.60
2022-11-14T17:28:06.346Z,90.80
2022-11-14T17:30:51.905Z,91.00
2022-11-14T17:33:37.914Z,91.20
2022-11-14T17:36:25.027Z,91.50
2022-11-14T17:39:10.514Z,91.80
2022-11-14T17:41:56.489Z,92.00
2022-11-14T17:44:41.911Z,92.20
2022-11-14T17:47:28.027Z,92.40
2022-11-14T17:50:13.532Z,92.70
2022-11-14T17:52:59.182Z,92.90
2022-11-14T17:55:45.408Z,93.20
2022-11-14T17:58:32.370Z,93.50
2022-11-14T18:01:20.789Z,93.90
2022-11-14T18:04:07.505Z,94.10
2022-11-14T18:06:53.647Z,94.30
2022-11-14T18:09:39.754Z,94.70
2022-11-14T18:12:25.268Z,94.90
2022-11-14T18:15:10.875Z,95.20
2022-11-14T18:17:57.511Z,95.50
2022-11-14T18:20:42.816Z,95.70
2022-11-14T18:23:28.381Z,96.00
2022-11-14T18:26:15.983Z,96.30
2022-11-14T18:29:02.422Z,96.60
2022-11-14T18:31:48.377Z,96.80
2022-11-14T18:34:36.893Z,97.10
2022-11-14T18:37:23.102Z,97.40
2022-11-14T18:40:16.188Z,97.40
2022-11-14T18:43:02.360Z,97.60
2022-11-14T18:45:48.068Z,97.60
2022-11-14T18:48:34.073Z,97.70
2022-11-14T18:51:22.318Z,97.60
2022-11-14T18:54:13.198Z,97.50
2022-11-14T18:56:58.643Z,97.50
2022-11-14T18:59:44.158Z,97.30
2022-11-14T19:02:29.845Z,97.30
2022-11-14T19:05:15.296Z,97.30
2022-11-14T19:08:00.527Z,97.40
2022-11-14T19:10:46.176Z,97.40
2022-11-14T19:13:32.069Z,97.60
2022-11-14T19:16:17.760Z,97.60
2022-11-14T19:19:04.570Z,97.70
2022-11-14T19:21:50.632Z,97.90
2022-11-14T19:24:36.327Z,98.10
2022-11-14T19:27:22.007Z,98.50
2022-11-14T19:30:08.258Z,98.80
2022-11-14T19:32:53.569Z,99.00
2022-11-14T19:35:39.468Z,99.20
2022-11-14T19:38:24.821Z,99.30
2022-11-14T19:41:16.528Z,99.40
2022-11-14T19:44:02.838Z,99.50
2022-11-14T19:46:48.482Z,99.80
2022-11-14T19:49:33.965Z,99.90
2022-11-14T19:52:19.479Z,99.90
2022-11-14T19:55:05.439Z,99.90
2022-11-14T19:57:51.117Z,99.90
2022-11-14T20:00:36.533Z,99.90
2022-11-14T20:03:22.098Z,99.90
2022-11-14T20:06:17.635Z,99.90
2022-11-14T20:09:06.984Z,99.90
2022-11-14T20:11:52.319Z,99.90
2022-11-14T20:14:37.931Z,99.90
2022-11-14T20:17:23.410Z,99.90
2022-11-14T20:20:09.159Z,99.90
2022-11-14T20:22:54.779Z,99.90
2022-11-14T20:25:40.898Z,99.90
2022-11-14T20:28:26.349Z,99.90
2022-11-14T20:31:20.972Z,99.90
2022-11-14T20:34:06.753Z,99.90
2022-11-14T20:39:57.618Z,99.90
2022-11-14T20:42:48.570Z,99.90
2022-11-14T20:45:34.318Z,99.90
2022-11-14T20:48:19.651Z,99.90
2022-11-14T20:51:06.194Z,99.90
2022-11-14T20:53:54.234Z,99.90
2022-11-14T20:56:39.772Z,99.90
2022-11-14T20:59:25.469Z,99.90
2022-11-14T21:02:12.597Z,99.90
2022-11-14T21:04:58.578Z,99.90
2022-11-14T21:07:43.808Z,99.90
2022-11-14T21:10:47.737Z,99.90
2022-11-14T21:13:57.299Z,99.90
2022-11-14T21:16:42.641Z,99.90
2022-11-14T21:19:31.065Z,99.90
2022-11-14T21:22:16.467Z,99.90
2022-11-14T21:25:01.944Z,99.90
2022-11-14T21:27:47.483Z,99.90
2022-11-14T21:30:34.453Z,99.90
2022-11-14T21:33:20.024Z,99.90
2022-11-14T21:36:22.865Z,99.90
2022-11-14T21:39:14.927Z,99.90
2022-11-14T21:42:01.362Z,99.90
2022-11-14T21:44:46.686Z,99.90
2022-11-14T21:47:33.689Z,99.90
2022-11-14T21:50:18.914Z,99.90
2022-11-14T21:53:18.862Z,99.90
2022-11-14T21:56:24.549Z,99.90
2022-11-14T21:59:15.344Z,99.90
2022-11-14T22:02:19.810Z,99.90
2022-11-14T22:05:06.382Z,99.90
2022-11-14T22:07:51.928Z,99.90
2022-11-14T22:10:37.579Z,99.90
2022-11-14T22:13:23.091Z,99.90
2022-11-14T22:16:10.050Z,99.90
2022-11-14T22:19:00.497Z,99.90
2022-11-14T22:21:50.516Z,99.90
2022-11-14T22:24:35.882Z,99.90
2022-11-14T22:27:21.374Z,99.90
2022-11-14T22:30:07.527Z,99.90
2022-11-14T22:32:53.193Z,99.90
2022-11-14T22:35:38.633Z,99.90
2022-11-14T22:38:24.152Z,99.90
2022-11-14T22:41:15.841Z,99.90
2022-11-14T22:44:01.972Z,99.90
2022-11-14T22:46:47.301Z,99.90
2022-11-14T22:49:32.987Z,99.90
2022-11-14T22:52:18.473Z,99.90
2022-11-14T22:55:04.129Z,99.90
2022-11-14T22:57:49.253Z,99.90
2022-11-14T23:00:34.729Z,99.90
2022-11-14T23:03:21.411Z,99.90
2022-11-14T23:06:11.681Z,99.90
2022-11-14T23:08:58.045Z,99.90
2022-11-14T23:11:43.818Z,99.90
2022-11-14T23:14:29.227Z,99.90
2022-11-14T23:17:14.738Z,99.90
2022-11-14T23:20:00.316Z,99.90
2022-11-14T23:22:46.341Z,99.90
2022-11-14T23:25:31.817Z,99.90
2022-11-14T23:28:17.476Z,99.90
2022-11-14T23:31:03.476Z,99.90
2022-11-14T23:33:50.603Z,99.90
2022-11-14T23:36:35.677Z,99.90
2022-11-14T23:39:21.172Z,99.90
2022-11-14T23:42:06.746Z,99.90
2022-11-14T23:44:52.263Z,99.90
2022-11-14T23:47:37.905Z,99.90
2022-11-14T23:50:23.123Z,99.90
2022-11-14T23:53:09.002Z,99.90
2022-11-14T23:55:57.601Z,99.90
2022-11-14T23:58:43.066Z,99.90
